createdAt,value
2023-01-09T00:00:32.538Z,69.20
2023-01-09T00:03:54.756Z,69.13
2023-01-09T00:06:56.566Z,69.23
2023-01-09T00:09:58.510Z,69.05
2023-01-09T00:13:00.388Z,69.28
2023-01-09T00:16:06.691Z,69.21
2023-01-09T00:19:08.743Z,69.49
2023-01-09T00:22:10.573Z,69.51
2023-01-09T00:25:12.424Z,69.34
2023-01-09T00:28:14.253Z,69.62
2023-01-09T00:31:17.788Z,69.67
2023-01-09T00:34:19.698Z,69.77
2023-01-09T00:37:22.111Z,69.82
2023-01-09T00:40:24.089Z,69.88
2023-01-09T00:43:30.823Z,69.82
2023-01-09T00:46:37.205Z,69.97
2023-01-09T00:49:40.353Z,70.03
2023-01-09T00:52:43.378Z,69.94
2023-01-09T00:55:45.272Z,69.71
2023-01-09T00:58:47.818Z,69.89
2023-01-09T01:01:49.853Z,69.83
2023-01-09T01:05:09.963Z,69.90
2023-01-09T01:08:14.466Z,69.82
2023-01-09T01:11:16.576Z,69.97
2023-01-09T01:14:18.412Z,70.02
2023-01-09T01:17:20.363Z,70.22
2023-01-09T01:20:22.201Z,70.20
2023-01-09T01:23:24.272Z,70.21
2023-01-09T01:26:26.141Z,70.17
2023-01-09T01:29:28.175Z,70.46
2023-01-09T01:32:30.003Z,70.34
2023-01-09T01:35:31.914Z,70.24
2023-01-09T01:38:35.041Z,70.33
2023-01-09T01:41:37.859Z,70.64
2023-01-09T01:45:00.941Z,70.45
2023-01-09T01:48:12.288Z,70.68
2023-01-09T01:51:16.411Z,70.50
2023-01-09T01:54:25.033Z,70.57
2023-01-09T01:57:27.089Z,70.48
2023-01-09T02:00:36.585Z,70.35
2023-01-09T02:03:40.684Z,70.45
2023-01-09T02:06:43.899Z,70.40
2023-01-09T02:09:46.090Z,70.46
2023-01-09T02:12:47.826Z,70.81
2023-01-09T02:16:24.055Z,70.75
2023-01-09T02:20:16.952Z,70.80
2023-01-09T02:23:37.536Z,70.96
2023-01-09T02:27:23.900Z,71.05
2023-01-09T02:30:40.285Z,71.03
2023-01-09T02:33:50.272Z,70.97
2023-01-09T02:37:22.559Z,71.14
2023-01-09T02:40:47.418Z,71.17
2023-01-09T02:44:16.226Z,71.08
2023-01-09T02:47:18.008Z,71.19
2023-01-09T02:50:23.987Z,71.29
2023-01-09T02:53:50.516Z,71.19
2023-01-09T02:57:13.819Z,71.18
2023-01-09T03:00:15.751Z,71.25
2023-01-09T03:03:37.551Z,71.22
2023-01-09T03:06:47.109Z,71.02
2023-01-09T03:09:53.574Z,71.30
2023-01-09T03:12:59.004Z,71.06
2023-01-09T03:16:07.353Z,71.20
2023-01-09T03:19:15.633Z,71.05
2023-01-09T03:22:18.015Z,70.99
2023-01-09T03:25:20.649Z,70.86
2023-01-09T03:28:28.660Z,70.85
2023-01-09T03:31:30.610Z,71.15
2023-01-09T03:34:32.522Z,71.21
2023-01-09T03:37:34.380Z,70.86
2023-01-09T03:40:36.349Z,70.77
2023-01-09T03:43:38.429Z,70.94
2023-01-09T03:46:40.309Z,70.79
2023-01-09T03:49:42.177Z,70.98
2023-01-09T03:52:44.029Z,70.90
2023-01-09T03:55:47.496Z,70.59
2023-01-09T03:58:49.663Z,70.73
2023-01-09T04:01:52.330Z,70.63
2023-01-09T04:04:54.234Z,70.48
2023-01-09T04:07:56.076Z,70.57
2023-01-09T04:10:57.929Z,70.61
2023-01-09T04:13:59.846Z,71.18
2023-01-09T04:17:01.893Z,71.21
2023-01-09T04:20:04.136Z,71.41
2023-01-09T04:23:05.845Z,71.02
2023-01-09T04:26:07.733Z,71.10
2023-01-09T04:29:09.572Z,71.33
2023-01-09T04:32:11.401Z,71.32
2023-01-09T04:35:13.386Z,71.54
2023-01-09T04:38:15.277Z,71.37
2023-01-09T04:41:37.056Z,71.45
2023-01-09T04:44:38.976Z,71.28
2023-01-09T04:47:40.967Z,71.31
2023-01-09T04:50:42.885Z,71.46
2023-01-09T04:53:44.749Z,71.23
2023-01-09T04:56:47.043Z,71.26
2023-01-09T04:59:48.753Z,71.43
2023-01-09T05:02:50.694Z,71.02
2023-01-09T05:05:52.645Z,71.28
2023-01-09T05:08:55.987Z,71.43
2023-01-09T05:11:57.878Z,71.57
2023-01-09T05:14:59.746Z,71.42
2023-01-09T05:18:01.606Z,71.61
2023-01-09T05:21:03.866Z,71.56
2023-01-09T05:24:05.725Z,71.63
2023-01-09T05:27:07.675Z,71.71
2023-01-09T05:30:10.370Z,71.67
2023-01-09T05:33:12.293Z,71.60
2023-01-09T05:36:14.555Z,71.67
2023-01-09T05:39:16.226Z,71.57
2023-01-09T05:42:18.060Z,72.01
2023-01-09T05:45:20.073Z,72.01
2023-01-09T05:48:22.078Z,72.09
2023-01-09T05:51:23.916Z,72.15
2023-01-09T05:54:25.755Z,72.14
2023-01-09T05:57:28.241Z,72.02
2023-01-09T06:00:30.705Z,72.15
2023-01-09T06:03:32.864Z,72.01
2023-01-09T06:06:34.714Z,72.03
2023-01-09T06:09:36.606Z,71.95
2023-01-09T06:12:38.626Z,72.24
2023-01-09T06:15:40.622Z,71.95
2023-01-09T06:18:42.554Z,72.01
2023-01-09T06:21:44.414Z,72.11
2023-01-09T06:24:46.476Z,72.06
2023-01-09T06:27:49.468Z,72.24
2023-01-09T06:30:52.564Z,72.13
2023-01-09T06:33:54.501Z,72.24
2023-01-09T06:36:56.356Z,72.15
2023-01-09T06:39:58.748Z,72.13
2023-01-09T06:43:00.647Z,71.92
2023-01-09T06:46:04.941Z,72.28
2023-01-09T06:49:09.900Z,72.43
2023-01-09T06:52:11.855Z,72.36
2023-01-09T06:55:13.762Z,72.25
2023-01-09T06:58:15.796Z,72.55
2023-01-09T07:01:17.832Z,72.52
2023-01-09T07:04:21.464Z,72.55
2023-01-09T07:07:23.439Z,72.74
2023-01-09T07:10:25.397Z,72.89
2023-01-09T07:13:27.421Z,72.69
2023-01-09T07:16:29.261Z,72.95
2023-01-09T07:19:31.316Z,73.00
2023-01-09T07:22:33.327Z,72.98
2023-01-09T07:25:35.215Z,72.95
2023-01-09T07:28:37.096Z,73.05
2023-01-09T07:31:39.158Z,73.00
2023-01-09T07:34:41.132Z,72.81
2023-01-09T07:37:43.048Z,72.74
2023-01-09T07:40:44.961Z,72.78
2023-01-09T07:43:46.885Z,73.04
2023-01-09T07:46:48.782Z,73.11
2023-01-09T07:49:53.255Z,73.12
2023-01-09T07:52:55.162Z,73.02
2023-01-09T07:55:57.179Z,72.96
2023-01-09T07:58:59.505Z,73.16
2023-01-09T08:02:04.821Z,73.16
2023-01-09T08:05:12.959Z,73.03
2023-01-09T08:08:16.135Z,73.16
2023-01-09T08:11:27.047Z,73.23
2023-01-09T08:14:29.145Z,73.24
2023-01-09T08:17:31.777Z,73.62
2023-01-09T08:20:35.300Z,73.64
2023-01-09T08:23:44.416Z,73.55
2023-01-09T08:26:46.348Z,73.91
2023-01-09T08:29:48.290Z,73.86
2023-01-09T08:32:58.885Z,74.18
2023-01-09T08:36:03.412Z,74.26
2023-01-09T08:39:05.393Z,74.42
2023-01-09T08:42:28.266Z,74.20
2023-01-09T08:45:53.198Z,74.31
2023-01-09T08:48:56.667Z,74.25
2023-01-09T08:51:59.740Z,74.21
2023-01-09T08:55:01.651Z,74.37
2023-01-09T08:58:03.616Z,74.14
2023-01-09T09:01:06.887Z,74.44
2023-01-09T09:04:08.797Z,74.65
2023-01-09T09:07:10.654Z,74.82
2023-01-09T09:10:17.901Z,74.72
2023-01-09T09:13:19.874Z,74.81
2023-01-09T09:16:26.324Z,75.13
2023-01-09T09:19:28.291Z,75.06
2023-01-09T09:22:30.457Z,75.18
2023-01-09T09:25:32.342Z,75.28
2023-01-09T09:28:37.209Z,75.19
2023-01-09T09:31:39.237Z,75.46
2023-01-09T09:34:41.607Z,75.62
2023-01-09T09:37:53.546Z,75.61
2023-01-09T09:41:51.889Z,75.79
2023-01-09T09:44:54.358Z,75.85
2023-01-09T09:48:39.914Z,76.08
2023-01-09T09:52:22.397Z,76.03
2023-01-09T09:55:31.581Z,76.14
2023-01-09T09:58:48.136Z,76.31
2023-01-09T10:02:24.735Z,76.24
2023-01-09T10:10:33.132Z,76.29
2023-01-09T10:13:55.173Z,76.34
2023-01-09T10:17:17.767Z,76.21
2023-01-09T10:20:51.601Z,76.40
2023-01-09T10:23:54.838Z,76.38
2023-01-09T10:27:14.997Z,76.65
2023-01-09T10:30:40.102Z,76.68
2023-01-09T10:34:02.167Z,76.65
2023-01-09T10:37:20.172Z,76.67
2023-01-09T10:40:30.633Z,76.81
2023-01-09T10:43:47.028Z,76.85
2023-01-09T10:46:57.566Z,76.79
2023-01-09T10:50:16.031Z,76.94
2023-01-09T10:53:28.883Z,77.08
2023-01-09T10:56:40.138Z,77.02
2023-01-09T10:59:46.330Z,77.17
2023-01-09T11:02:50.890Z,77.28
2023-01-09T11:05:58.388Z,77.27
2023-01-09T11:09:02.920Z,77.42
2023-01-09T11:12:26.300Z,77.36
2023-01-09T11:15:52.959Z,77.59
2023-01-09T11:19:07.699Z,77.45
2023-01-09T11:22:20.055Z,77.66
2023-01-09T11:25:28.395Z,77.63
2023-01-09T11:28:31.897Z,77.71
2023-01-09T11:31:35.648Z,77.76
2023-01-09T11:34:40.247Z,77.71
2023-01-09T11:37:51.310Z,77.71
2023-01-09T11:41:03.143Z,77.80
2023-01-09T11:44:09.292Z,77.88
2023-01-09T11:47:38.744Z,77.98
2023-01-09T11:51:00.335Z,78.11
2023-01-09T11:54:35.167Z,78.15
2023-01-09T11:57:39.860Z,78.09
2023-01-09T12:01:00.334Z,78.27
2023-01-09T12:04:45.593Z,78.27
2023-01-09T12:08:30.542Z,78.31
2023-01-09T12:12:18.588Z,78.42
2023-01-09T12:15:32.462Z,78.35
2023-01-09T12:19:29.141Z,78.40
2023-01-09T12:23:23.801Z,78.43
2023-01-09T12:27:37.669Z,78.48
2023-01-09T12:39:38.668Z,78.46
2023-01-09T12:44:01.375Z,78.56
2023-01-09T12:47:36.384Z,78.54
2023-01-09T12:51:41.722Z,78.53
2023-01-09T12:54:55.095Z,78.60
2023-01-09T12:58:23.964Z,78.51
2023-01-09T13:01:56.896Z,78.59
2023-01-09T13:05:16.622Z,78.57
2023-01-09T13:08:43.619Z,78.53
2023-01-09T13:11:55.747Z,78.68
2023-01-09T13:15:07.824Z,78.66
2023-01-09T13:18:50.038Z,78.65
2023-01-09T13:21:58.250Z,78.65
2023-01-09T13:25:35.452Z,78.74
2023-01-09T13:29:18.365Z,78.68
2023-01-09T13:33:05.587Z,78.66
2023-01-09T13:36:38.875Z,78.68
2023-01-09T13:39:54.565Z,78.68
2023-01-09T13:43:20.087Z,78.64
2023-01-09T13:47:00.763Z,78.66
2023-01-09T13:50:09.711Z,78.65
2023-01-09T13:53:40.787Z,78.74
2023-01-09T13:57:45.865Z,78.78
2023-01-09T14:00:58.772Z,78.67
2023-01-09T14:04:41.753Z,78.62
2023-01-09T14:08:02.728Z,78.54
2023-01-09T14:11:57.559Z,78.66
2023-01-09T14:15:32.061Z,78.69
2023-01-09T14:18:52.285Z,78.58
2023-01-09T14:22:13.327Z,78.61
2023-01-09T14:25:24.239Z,78.55
2023-01-09T14:28:32.087Z,78.46
2023-01-09T14:31:35.569Z,78.33
2023-01-09T14:34:44.355Z,78.40
2023-01-09T14:38:01.609Z,78.35
2023-01-09T14:41:45.809Z,78.31
2023-01-09T14:45:31.073Z,78.18
2023-01-09T14:48:50.926Z,78.27
2023-01-09T14:51:58.351Z,78.28
2023-01-09T14:55:41.462Z,78.37
2023-01-09T14:58:48.233Z,78.23
2023-01-09T15:02:02.266Z,78.27
2023-01-09T15:05:15.071Z,78.23
2023-01-09T15:08:22.438Z,78.19
2023-01-09T15:11:29.757Z,78.22
2023-01-09T15:15:10.313Z,78.21
2023-01-09T15:18:24.381Z,78.18
2023-01-09T15:21:31.276Z,78.15
2023-01-09T15:24:39.439Z,78.21
2023-01-09T15:27:51.814Z,78.17
2023-01-09T15:31:08.234Z,78.12
2023-01-09T15:34:18.153Z,78.23
2023-01-09T15:37:30.534Z,78.12
2023-01-09T15:40:34.982Z,78.02
2023-01-09T15:43:44.146Z,78.00
2023-01-09T15:46:50.324Z,77.96
2023-01-09T15:49:55.966Z,77.88
2023-01-09T15:58:26.892Z,77.89
2023-01-09T16:01:47.916Z,77.80
2023-01-09T16:04:55.065Z,77.69
2023-01-09T16:07:59.226Z,77.81
2023-01-09T16:11:10.645Z,77.79
2023-01-09T16:14:21.046Z,77.65
2023-01-09T16:17:26.704Z,77.68
2023-01-09T16:20:30.243Z,77.55
2023-01-09T16:23:35.764Z,77.53
2023-01-09T16:26:45.656Z,77.54
2023-01-09T16:29:58.747Z,77.59
2023-01-09T16:33:02.558Z,77.44
2023-01-09T16:36:06.319Z,77.45
2023-01-09T16:39:27.861Z,77.41
2023-01-09T16:42:53.650Z,77.36
2023-01-09T16:45:57.171Z,77.29
2023-01-09T16:49:00.458Z,77.31
2023-01-09T16:52:17.562Z,77.23
2023-01-09T16:55:21.132Z,77.20
2023-01-09T16:58:30.499Z,77.04
2023-01-09T17:01:33.904Z,77.08
2023-01-09T17:04:37.174Z,77.01
2023-01-09T17:07:40.488Z,77.07
2023-01-09T17:10:44.477Z,77.05
2023-01-09T17:13:48.394Z,76.95
2023-01-09T17:16:52.122Z,76.93
2023-01-09T17:19:58.069Z,76.98
2023-01-09T17:23:04.468Z,76.99
2023-01-09T17:26:36.745Z,76.98
2023-01-09T17:29:40.405Z,76.95
2023-01-09T17:32:47.933Z,76.97
2023-01-09T17:35:51.537Z,76.77
2023-01-09T17:38:57.882Z,76.80
2023-01-09T17:42:02.010Z,76.90
2023-01-09T17:45:10.092Z,76.83
2023-01-09T17:48:21.855Z,76.91
2023-01-09T17:51:25.466Z,76.88
2023-01-09T17:54:28.941Z,76.89
2023-01-09T17:57:32.965Z,76.85
2023-01-09T18:00:39.691Z,76.78
2023-01-09T18:03:44.385Z,76.81
2023-01-09T18:06:49.647Z,76.76
2023-01-09T18:09:53.555Z,76.74
2023-01-09T18:12:57.045Z,76.62
2023-01-09T18:16:01.389Z,76.64
2023-01-09T18:19:04.865Z,76.61
2023-01-09T18:22:10.216Z,76.53
2023-01-09T18:25:13.495Z,76.61
2023-01-09T18:28:19.780Z,76.54
2023-01-09T18:31:24.631Z,76.49
2023-01-09T18:34:27.882Z,76.50
2023-01-09T18:37:31.172Z,76.19
2023-01-09T18:40:34.548Z,76.14
2023-01-09T18:43:37.820Z,76.22
2023-01-09T18:46:42.161Z,76.11
2023-01-09T18:49:45.373Z,76.14
2023-01-09T18:52:48.599Z,76.15
2023-01-09T18:55:51.777Z,75.97
2023-01-09T18:58:57.299Z,75.90
2023-01-09T19:02:02.198Z,75.94
2023-01-09T19:05:06.459Z,75.84
2023-01-09T19:08:09.683Z,75.96
2023-01-09T19:11:12.933Z,75.90
2023-01-09T19:14:16.193Z,75.95
2023-01-09T19:17:19.633Z,75.89
2023-01-09T19:20:23.411Z,75.82
2023-01-09T19:23:26.685Z,75.95
2023-01-09T19:26:31.097Z,75.90
2023-01-09T19:29:36.616Z,75.75
2023-01-09T19:32:40.619Z,75.76
2023-01-09T19:35:48.933Z,75.79
2023-01-09T19:38:59.904Z,75.70
2023-01-09T19:42:03.788Z,75.66
2023-01-09T19:45:08.258Z,75.70
2023-01-09T19:48:11.675Z,75.68
2023-01-09T19:51:20.112Z,75.65
2023-01-09T19:54:23.607Z,75.66
2023-01-09T19:57:26.866Z,75.72
2023-01-09T20:00:30.220Z,75.65
2023-01-09T20:03:33.496Z,75.49
2023-01-09T20:06:41.727Z,75.51
2023-01-09T20:09:45.571Z,75.40
2023-01-09T20:12:49.558Z,75.36
2023-01-09T20:15:59.079Z,75.41
2023-01-09T20:19:09.670Z,75.39
2023-01-09T20:22:13.594Z,75.18
2023-01-09T20:25:16.933Z,75.14
2023-01-09T20:28:21.274Z,75.09
2023-01-09T20:31:31.203Z,75.06
2023-01-09T20:34:34.600Z,75.15
2023-01-09T20:40:57.362Z,75.12
2023-01-09T20:44:12.932Z,75.17
2023-01-09T20:47:16.181Z,75.13
2023-01-09T20:50:19.486Z,75.04
2023-01-09T20:53:22.910Z,75.01
2023-01-09T20:56:29.123Z,74.89
2023-01-09T20:59:32.552Z,74.89
2023-01-09T21:02:36.176Z,74.83
2023-01-09T21:05:43.537Z,74.93
2023-01-09T21:09:10.241Z,74.89
2023-01-09T21:12:44.539Z,74.79
2023-01-09T21:17:36.664Z,74.73
2023-01-09T21:20:44.729Z,74.61
2023-01-09T21:24:07.836Z,74.66
2023-01-09T21:30:28.513Z,74.53
2023-01-09T21:33:31.833Z,74.68
2023-01-09T21:36:35.711Z,74.81
2023-01-09T21:43:23.755Z,74.62
2023-01-09T21:46:45.308Z,74.67
2023-01-09T21:49:48.780Z,74.63
2023-01-09T21:52:52.003Z,74.44
2023-01-09T21:55:55.370Z,74.57
2023-01-09T21:58:58.790Z,74.78
2023-01-09T22:02:11.873Z,74.73
2023-01-09T22:05:15.197Z,74.74
2023-01-09T22:08:18.686Z,74.73
2023-01-09T22:11:21.934Z,74.92
2023-01-09T22:14:25.121Z,74.88
2023-01-09T22:17:29.050Z,74.80
2023-01-09T22:20:32.263Z,74.82
2023-01-09T22:23:35.563Z,74.79
2023-01-09T22:26:38.734Z,75.03
2023-01-09T22:29:41.961Z,74.96
2023-01-09T22:32:45.288Z,74.87
2023-01-09T22:35:48.521Z,74.82
2023-01-09T22:38:56.442Z,74.76
2023-01-09T22:41:59.791Z,74.85
2023-01-09T22:45:03.407Z,74.87
2023-01-09T22:48:06.671Z,74.89
2023-01-09T22:51:09.812Z,74.79
2023-01-09T22:54:13.009Z,74.79
2023-01-09T22:57:16.239Z,74.84
2023-01-09T23:00:19.682Z,74.87
2023-01-09T23:08:16.538Z,74.80
2023-01-09T23:11:47.505Z,74.94
2023-01-09T23:14:50.760Z,74.81
2023-01-09T23:17:53.751Z,74.90
2023-01-09T23:20:59.880Z,74.91
2023-01-09T23:24:03.107Z,74.89
2023-01-09T23:27:07.533Z,74.96
2023-01-09T23:30:11.116Z,74.86
2023-01-09T23:33:14.647Z,75.00
2023-01-09T23:36:17.901Z,75.00
2023-01-09T23:39:21.456Z,74.90
2023-01-09T23:42:43.302Z,74.83
2023-01-09T23:45:46.784Z,74.88
2023-01-09T23:48:50.037Z,74.74
2023-01-09T23:51:53.160Z,74.65
2023-01-09T23:54:56.922Z,74.69
2023-01-09T23:58:00.533Z,74.76
